Time;durP1;ratioP1;P1;durP2;ratioP2;P2;SDS_P1;SDS_P2;PMS_P1;PMS_P2;Temp;Humidity;BMP_temperature;BMP_pressure;BME280_temperature;BME280_humidity;BME280_pressure;Samples;Min_cycle;Max_cycle;Signal;HPM_P1;HPM_P2
2022/04/04 00:00:07;;;;;;;8.10;4.28;;;;;;;;;;5056834;28;20036;-72
2022/04/04 00:02:36;;;;;;;6.72;4.30;;;;;;;;;;5055965;28;20041;-72
2022/04/04 00:05:03;;;;;;;8.48;5.60;;;;;;;;;;5061749;28;20044;-72
2022/04/04 00:07:29;;;;;;;6.05;4.97;;;;;;;;;;5063633;28;20376;-72
2022/04/04 00:09:55;;;;;;;8.27;5.38;;;;;;;;;;5062817;28;20123;-72
2022/04/04 00:12:21;;;;;;;6.78;4.80;;;;;;;;;;5058413;28;20435;-72
2022/04/04 00:14:48;;;;;;;6.47;4.68;;;;;;;;;;5059567;28;20047;-72
2022/04/04 00:17:14;;;;;;;6.50;4.90;;;;;;;;;;5064816;28;20048;-72
2022/04/04 00:19:40;;;;;;;7.97;4.97;;;;;;;;;;5055961;28;20052;-72
2022/04/04 00:22:06;;;;;;;9.40;5.40;;;;;;;;;;5062380;28;20084;-72
2022/04/04 00:24:32;;;;;;;7.47;5.07;;;;;;;;;;5065972;28;20430;-72
2022/04/04 00:26:59;;;;;;;6.47;4.70;;;;;;;;;;5061735;28;20056;-72
2022/04/04 00:29:25;;;;;;;9.27;5.53;;;;;;;;;;5056663;28;20397;-72
2022/04/04 00:31:52;;;;;;;12.10;5.38;;;;;;;;;;5059455;28;20061;-72
2022/04/04 00:34:18;;;;;;;7.80;5.50;;;;;;;;;;5065009;28;20445;-71
2022/04/04 00:36:45;;;;;;;8.80;5.50;;;;;;;;;;5064583;28;20050;-72
2022/04/04 00:39:15;;;;;;;9.00;5.95;;;;;;;;;;5073580;28;20094;-72
2022/04/04 00:41:41;;;;;;;9.52;5.32;;;;;;;;;;5069455;28;20094;-72
2022/04/04 00:44:07;;;;;;;8.50;5.60;;;;;;;;;;5068864;28;20044;-72
2022/04/04 00:46:33;;;;;;;8.95;6.05;;;;;;;;;;5061433;28;20123;-72
2022/04/04 00:48:59;;;;;;;7.70;6.10;;;;;;;;;;5065947;28;20040;-72
2022/04/04 00:51:25;;;;;;;9.80;6.32;;;;;;;;;;5067377;28;20498;-72
2022/04/04 00:53:51;;;;;;;11.10;7.13;;;;;;;;;;5060880;28;20037;-73
2022/04/04 00:56:18;;;;;;;9.45;6.57;;;;;;;;;;5060429;28;20446;-72
2022/04/04 00:58:44;;;;;;;12.73;7.00;;;;;;;;;;5062231;28;20045;-73
2022/04/04 01:01:13;;;;;;;8.70;5.90;;;;;;;;;;5059944;28;20494;-73
2022/04/04 01:03:38;;;;;;;11.00;6.85;;;;;;;;;;5071730;28;20037;-73
2022/04/04 01:06:04;;;;;;;9.65;6.50;;;;;;;;;;5069383;28;20040;-73
2022/04/04 01:08:31;;;;;;;8.25;6.20;;;;;;;;;;5066047;28;20072;-73
2022/04/04 01:10:57;;;;;;;10.05;6.75;;;;;;;;;;5063796;28;20059;-73
2022/04/04 01:13:23;;;;;;;8.35;6.07;;;;;;;;;;5061073;28;20048;-73
2022/04/04 01:15:49;;;;;;;9.77;6.88;;;;;;;;;;5057399;28;20043;-73
2022/04/04 01:18:15;;;;;;;9.70;6.60;;;;;;;;;;5065178;28;20404;-73
2022/04/04 01:20:41;;;;;;;12.77;7.00;;;;;;;;;;5075265;28;20040;-72
2022/04/04 01:23:07;;;;;;;11.50;7.25;;;;;;;;;;5066458;28;20476;-73
2022/04/04 01:25:37;;;;;;;9.10;5.97;;;;;;;;;;5067006;28;20062;-73
2022/04/04 01:28:04;;;;;;;11.07;6.57;;;;;;;;;;5060721;28;20085;-73
2022/04/04 01:30:31;;;;;;;11.18;5.97;;;;;;;;;;5061339;28;20044;-73
2022/04/04 01:32:57;;;;;;;9.82;6.65;;;;;;;;;;5055225;28;20045;-72
2022/04/04 01:35:23;;;;;;;11.18;6.47;;;;;;;;;;5063265;28;20052;-73
2022/04/04 01:37:49;;;;;;;11.27;7.13;;;;;;;;;;5067541;28;20438;-73
2022/04/04 01:40:16;;;;;;;12.07;7.07;;;;;;;;;;5065919;28;20036;-73
2022/04/04 01:42:42;;;;;;;11.45;7.68;;;;;;;;;;5062017;28;20049;-73
2022/04/04 01:45:11;;;;;;;12.18;7.55;;;;;;;;;;5064421;28;20032;-73
2022/04/04 01:47:37;;;;;;;13.27;7.82;;;;;;;;;;5065278;28;20052;-73
2022/04/04 01:50:03;;;;;;;11.25;8.05;;;;;;;;;;5065464;28;20047;-73
2022/04/04 01:52:30;;;;;;;12.55;8.02;;;;;;;;;;5068263;28;20044;-73
2022/04/04 01:54:56;;;;;;;16.35;8.38;;;;;;;;;;5062671;28;20078;-73
2022/04/04 01:57:22;;;;;;;13.77;8.52;;;;;;;;;;5052356;28;20527;-73
2022/04/04 01:59:48;;;;;;;10.23;8.15;;;;;;;;;;5064310;28;20145;-73
2022/04/04 02:02:14;;;;;;;15.35;8.07;;;;;;;;;;5067478;28;20895;-73
2022/04/04 02:04:40;;;;;;;16.15;9.30;;;;;;;;;;5064235;28;20087;-73
2022/04/04 02:07:06;;;;;;;11.70;8.38;;;;;;;;;;5063858;28;20074;-73
2022/04/04 02:09:33;;;;;;;9.95;7.38;;;;;;;;;;5071502;28;20496;-73
2022/04/04 02:11:59;;;;;;;12.35;8.75;;;;;;;;;;5071095;28;20048;-73
2022/04/04 02:14:25;;;;;;;13.88;8.15;;;;;;;;;;5066925;28;21114;-73
2022/04/04 02:16:51;;;;;;;15.98;8.90;;;;;;;;;;5064450;28;20052;-73
2022/04/04 02:19:17;;;;;;;13.07;7.97;;;;;;;;;;5062126;28;20124;-73
2022/04/04 02:21:44;;;;;;;14.18;8.85;;;;;;;;;;5072413;28;20055;-73
2022/04/04 02:24:13;;;;;;;13.75;7.97;;;;;;;;;;5067854;28;20047;-73
2022/04/04 02:26:39;;;;;;;11.80;7.65;;;;;;;;;;5067098;28;20093;-73
2022/04/04 02:29:05;;;;;;;12.93;8.13;;;;;;;;;;5071089;28;20048;-73
2022/04/04 02:31:31;;;;;;;13.23;7.78;;;;;;;;;;5068836;28;20045;-73
2022/04/04 02:33:57;;;;;;;11.60;7.78;;;;;;;;;;5066682;28;20050;-73
2022/04/04 02:36:26;;;;;;;15.23;7.95;;;;;;;;;;5060928;28;20044;-73
2022/04/04 02:38:52;;;;;;;11.98;7.00;;;;;;;;;;5056300;28;20115;-72
2022/04/04 02:41:18;;;;;;;14.52;6.68;;;;;;;;;;5066842;28;20098;-73
2022/04/04 02:43:44;;;;;;;12.63;5.90;;;;;;;;;;5069607;28;20529;-73
2022/04/04 02:46:12;;;;;;;8.93;5.53;;;;;;;;;;5068645;28;20081;-73
2022/04/04 02:48:38;;;;;;;11.82;6.03;;;;;;;;;;5071556;28;20052;-72
2022/04/04 02:51:07;;;;;;;13.85;6.18;;;;;;;;;;5071083;28;20553;-73
2022/04/04 02:53:33;;;;;;;15.25;6.70;;;;;;;;;;5061886;28;20051;-73
2022/04/04 02:58:43;;;;;;;11.70;6.60;;;;;;;;;;5065525;28;20056;-73
2022/04/04 03:01:09;;;;;;;11.30;6.63;;;;;;;;;;5061260;28;20044;-72
2022/04/04 03:03:35;;;;;;;10.23;6.75;;;;;;;;;;5063849;28;20074;-73
2022/04/04 03:06:01;;;;;;;12.77;6.65;;;;;;;;;;5058585;28;20106;-73
2022/04/04 03:08:30;;;;;;;10.88;6.47;;;;;;;;;;5091248;28;20040;-72
2022/04/04 03:10:56;;;;;;;8.25;5.95;;;;;;;;;;5067698;28;20059;-72
2022/04/04 03:13:22;;;;;;;12.50;6.35;;;;;;;;;;5065070;28;20087;-72
2022/04/04 03:15:48;;;;;;;13.27;7.20;;;;;;;;;;5060495;28;20404;-72
2022/04/04 03:18:14;;;;;;;11.88;6.75;;;;;;;;;;5064685;28;20059;-72
2022/04/04 03:20:42;;;;;;;12.52;7.65;;;;;;;;;;5067709;28;20036;-73
2022/04/04 03:23:08;;;;;;;10.65;7.25;;;;;;;;;;5056351;28;20497;-72
2022/04/04 03:25:34;;;;;;;15.93;8.23;;;;;;;;;;5066741;28;20044;-72
2022/04/04 03:28:00;;;;;;;14.13;7.93;;;;;;;;;;5066607;28;20381;-72
2022/04/04 03:30:31;;;;;;;12.77;8.73;;;;;;;;;;5064122;28;20060;-72
2022/04/04 03:32:58;;;;;;;17.20;8.93;;;;;;;;;;5090498;28;20046;-73
2022/04/04 03:35:25;;;;;;;14.95;8.50;;;;;;;;;;5094415;28;20075;-72
2022/04/04 03:37:52;;;;;;;16.33;9.48;;;;;;;;;;5058762;28;20051;-72
2022/04/04 03:40:19;;;;;;;16.27;9.27;;;;;;;;;;5093213;28;20051;-72
2022/04/04 03:42:46;;;;;;;16.40;9.52;;;;;;;;;;5055049;28;20500;-72
2022/04/04 03:45:13;;;;;;;17.42;10.45;;;;;;;;;;5064224;28;20040;-72
2022/04/04 03:47:40;;;;;;;14.10;10.02;;;;;;;;;;5053659;28;20049;-72
2022/04/04 03:50:06;;;;;;;16.40;10.50;;;;;;;;;;5054484;28;20040;-73
2022/04/04 03:52:34;;;;;;;15.77;9.35;;;;;;;;;;5066543;28;20048;-72
2022/04/04 03:55:00;;;;;;;13.38;8.25;;;;;;;;;;5066270;28;20059;-72
2022/04/04 03:57:27;;;;;;;13.15;8.25;;;;;;;;;;5057806;28;20049;-72
2022/04/04 03:59:53;;;;;;;9.85;6.55;;;;;;;;;;5066708;28;20383;-72
2022/04/04 04:02:19;;;;;;;10.95;6.85;;;;;;;;;;5062997;28;20040;-73
2022/04/04 04:04:45;;;;;;;11.75;7.53;;;;;;;;;;5062171;28;20070;-72
2022/04/04 04:07:15;;;;;;;10.98;6.53;;;;;;;;;;5067525;28;20039;-72
2022/04/04 04:09:43;;;;;;;15.18;6.80;;;;;;;;;;5054259;28;20079;-73
2022/04/04 04:12:10;;;;;;;15.45;6.93;;;;;;;;;;5071072;28;20044;-73
2022/04/04 04:14:36;;;;;;;11.48;5.97;;;;;;;;;;5061759;28;20049;-73
2022/04/04 04:17:03;;;;;;;9.52;5.78;;;;;;;;;;5072987;28;20123;-72
2022/04/04 04:22:13;;;;;;;12.85;5.82;;;;;;;;;;5068671;28;20044;-72
2022/04/04 04:24:39;;;;;;;15.55;7.18;;;;;;;;;;5069558;28;20040;-72
2022/04/04 04:27:05;;;;;;;13.13;6.40;;;;;;;;;;5059755;28;20044;-73
2022/04/04 04:29:34;;;;;;;10.48;5.75;;;;;;;;;;5069605;28;20147;-72
2022/04/04 04:32:00;;;;;;;10.85;5.65;;;;;;;;;;5068184;28;20059;-72
2022/04/04 04:34:26;;;;;;;11.07;5.30;;;;;;;;;;5068022;28;20468;-72
2022/04/04 04:36:52;;;;;;;9.13;4.57;;;;;;;;;;5070422;28;20068;-72
2022/04/04 04:39:18;;;;;;;10.32;4.15;;;;;;;;;;5062098;28;20061;-72
2022/04/04 04:41:45;;;;;;;14.02;4.40;;;;;;;;;;5064282;28;20251;-72
2022/04/04 04:44:11;;;;;;;14.93;5.15;;;;;;;;;;5061891;28;20047;-72
2022/04/04 04:46:38;;;;;;;13.32;4.55;;;;;;;;;;5093230;28;20052;-72
2022/04/04 04:49:04;;;;;;;11.77;4.20;;;;;;;;;;5072398;28;20492;-72
2022/04/04 04:51:30;;;;;;;6.57;3.65;;;;;;;;;;5064608;28;20045;-73
2022/04/04 04:53:57;;;;;;;9.75;3.53;;;;;;;;;;5066712;28;20121;-73
2022/04/04 04:56:25;;;;;;;8.35;3.30;;;;;;;;;;5092690;28;20389;-73
2022/04/04 04:58:52;;;;;;;7.40;2.83;;;;;;;;;;5061649;28;20127;-72
2022/04/04 05:01:20;;;;;;;6.55;2.60;;;;;;;;;;5066891;28;20056;-73
2022/04/04 05:03:46;;;;;;;8.82;2.90;;;;;;;;;;5056757;28;20049;-72
2022/04/04 05:06:12;;;;;;;5.53;2.47;;;;;;;;;;5066413;28;20561;-73
2022/04/04 05:08:38;;;;;;;5.72;2.75;;;;;;;;;;5065582;28;20053;-73
2022/04/04 05:11:04;;;;;;;13.05;3.28;;;;;;;;;;5063260;28;20049;-73
2022/04/04 05:13:30;;;;;;;10.38;3.10;;;;;;;;;;5068823;28;20080;-73
2022/04/04 05:15:56;;;;;;;8.73;2.38;;;;;;;;;;5060476;28;20049;-73
2022/04/04 05:18:22;;;;;;;7.03;3.13;;;;;;;;;;5065143;28;20523;-74
2022/04/04 05:20:48;;;;;;;10.20;3.17;;;;;;;;;;5062541;28;23034;-73
2022/04/04 05:23:17;;;;;;;7.63;3.03;;;;;;;;;;5068484;28;20378;-74
2022/04/04 05:25:43;;;;;;;7.25;2.97;;;;;;;;;;5066914;28;20401;-73
2022/04/04 05:28:10;;;;;;;10.80;3.35;;;;;;;;;;5059775;28;20057;-74
2022/04/04 05:30:37;;;;;;;6.97;2.95;;;;;;;;;;5064828;28;20138;-74
2022/04/04 05:33:03;;;;;;;6.80;3.08;;;;;;;;;;5065343;28;20387;-73
2022/04/04 05:35:29;;;;;;;6.60;2.97;;;;;;;;;;5065938;28;20493;-74
2022/04/04 05:37:55;;;;;;;9.98;3.78;;;;;;;;;;5067283;28;20040;-74
2022/04/04 05:40:22;;;;;;;14.15;4.95;;;;;;;;;;5071172;28;20038;-74
2022/04/04 05:42:49;;;;;;;13.13;7.07;;;;;;;;;;5068007;28;20040;-73
2022/04/04 05:45:15;;;;;;;15.55;7.13;;;;;;;;;;5084825;28;20400;-73
2022/04/04 05:47:44;;;;;;;13.93;5.88;;;;;;;;;;5061964;28;20055;-73
2022/04/04 05:50:10;;;;;;;15.10;6.47;;;;;;;;;;5062977;28;20401;-73
2022/04/04 05:52:37;;;;;;;13.73;7.53;;;;;;;;;;5061819;28;20511;-73
2022/04/04 05:55:04;;;;;;;10.73;6.85;;;;;;;;;;5059208;28;20101;-74
2022/04/04 05:57:31;;;;;;;12.60;7.60;;;;;;;;;;5091400;28;20080;-74
2022/04/04 05:59:57;;;;;;;11.93;7.50;;;;;;;;;;5062639;28;20048;-73
2022/04/04 06:02:26;;;;;;;14.85;7.55;;;;;;;;;;5056183;28;20049;-74
2022/04/04 06:04:52;;;;;;;13.95;7.82;;;;;;;;;;5058670;28;20136;-73
2022/04/04 06:07:18;;;;;;;14.55;7.57;;;;;;;;;;5060080;28;20123;-73
2022/04/04 06:09:44;;;;;;;18.00;9.20;;;;;;;;;;5058072;28;20048;-73
2022/04/04 06:12:11;;;;;;;16.67;7.80;;;;;;;;;;5051538;28;20041;-73
2022/04/04 06:14:37;;;;;;;12.98;7.88;;;;;;;;;;5088398;28;20049;-73
2022/04/04 06:17:06;;;;;;;14.13;7.88;;;;;;;;;;5052444;28;20400;-73
2022/04/04 06:19:36;;;;;;;14.55;7.78;;;;;;;;;;5087260;28;20060;-73
2022/04/04 06:22:03;;;;;;;17.55;7.97;;;;;;;;;;5059677;28;20124;-74
2022/04/04 06:24:33;;;;;;;14.35;8.23;;;;;;;;;;5052460;28;20206;-73
2022/04/04 06:27:02;;;;;;;15.85;8.63;;;;;;;;;;5059669;28;20101;-73
2022/04/04 06:29:28;;;;;;;15.45;7.40;;;;;;;;;;5072186;28;20056;-74
2022/04/04 06:31:55;;;;;;;15.00;6.88;;;;;;;;;;5054662;28;20045;-73
2022/04/04 06:34:21;;;;;;;14.38;7.63;;;;;;;;;;5054596;28;20052;-73
2022/04/04 06:36:47;;;;;;;15.85;7.22;;;;;;;;;;5056645;28;20056;-74
2022/04/04 06:39:14;;;;;;;17.92;8.07;;;;;;;;;;5062324;28;20048;-74
2022/04/04 06:41:40;;;;;;;16.92;8.02;;;;;;;;;;5059135;28;20222;-74
2022/04/04 06:44:07;;;;;;;17.63;8.32;;;;;;;;;;5072620;28;20411;-75
2022/04/04 06:46:36;;;;;;;20.90;9.50;;;;;;;;;;5073482;28;20481;-76
2022/04/04 06:49:03;;;;;;;21.75;8.85;;;;;;;;;;5074502;28;20048;-75
2022/04/04 06:51:29;;;;;;;19.58;9.32;;;;;;;;;;5065163;28;20048;-75
2022/04/04 06:53:55;;;;;;;14.30;7.13;;;;;;;;;;5075440;28;20048;-74
2022/04/04 06:56:21;;;;;;;13.10;6.68;;;;;;;;;;5065100;28;20446;-74
2022/04/04 06:58:52;;;;;;;21.92;8.38;;;;;;;;;;5063930;28;20194;-73
2022/04/04 07:01:18;;;;;;;20.63;8.32;;;;;;;;;;5081669;28;20051;-74
2022/04/04 07:03:44;;;;;;;22.50;8.25;;;;;;;;;;5065369;28;20044;-74
2022/04/04 07:06:11;;;;;;;15.05;8.55;;;;;;;;;;5050193;28;21199;-74
2022/04/04 07:08:37;;;;;;;20.73;8.68;;;;;;;;;;5062532;28;20040;-74
2022/04/04 07:11:03;;;;;;;20.92;8.80;;;;;;;;;;5062378;28;20105;-74
2022/04/04 07:13:31;;;;;;;19.42;8.93;;;;;;;;;;5058068;28;20064;-74
2022/04/04 07:15:58;;;;;;;23.45;9.23;;;;;;;;;;5049941;28;20052;-74
2022/04/04 07:18:24;;;;;;;16.20;8.18;;;;;;;;;;5058951;28;20043;-75
2022/04/04 07:20:50;;;;;;;14.85;7.00;;;;;;;;;;5060469;28;20036;-74
2022/04/04 07:23:16;;;;;;;15.95;7.78;;;;;;;;;;5064414;28;20047;-74
2022/04/04 07:25:42;;;;;;;17.63;7.95;;;;;;;;;;5060286;28;20041;-74
2022/04/04 07:28:08;;;;;;;15.35;7.85;;;;;;;;;;5055109;28;20059;-74
2022/04/04 07:30:34;;;;;;;18.83;8.70;;;;;;;;;;5065556;28;20045;-74
2022/04/04 07:33:03;;;;;;;16.65;8.55;;;;;;;;;;5072179;28;20049;-74
2022/04/04 07:35:32;;;;;;;23.73;9.02;;;;;;;;;;5057430;28;20420;-73
2022/04/04 07:37:58;;;;;;;21.20;8.23;;;;;;;;;;5055174;28;20102;-74
2022/04/04 07:40:24;;;;;;;19.88;8.75;;;;;;;;;;5050035;28;20526;-74
2022/04/04 07:42:50;;;;;;;15.30;8.13;;;;;;;;;;5078128;28;20086;-73
2022/04/04 07:45:16;;;;;;;17.50;9.18;;;;;;;;;;5087010;28;20217;-73
2022/04/04 07:47:43;;;;;;;14.35;8.10;;;;;;;;;;5089700;28;20388;-73
2022/04/04 07:50:10;;;;;;;19.58;8.50;;;;;;;;;;5084403;28;20054;-73
2022/04/04 07:52:36;;;;;;;15.20;6.47;;;;;;;;;;5083830;28;20037;-73
2022/04/04 07:55:02;;;;;;;16.38;6.60;;;;;;;;;;5071400;28;20393;-74
2022/04/04 07:57:28;;;;;;;15.98;6.47;;;;;;;;;;5077585;28;20075;-73
2022/04/04 07:59:54;;;;;;;18.25;6.70;;;;;;;;;;5072853;28;20072;-72
2022/04/04 08:02:20;;;;;;;17.48;6.28;;;;;;;;;;5061853;28;20051;-73
2022/04/04 08:04:47;;;;;;;14.43;6.50;;;;;;;;;;5064719;28;20048;-72
2022/04/04 08:07:13;;;;;;;15.48;6.47;;;;;;;;;;5061726;28;20434;-73
2022/04/04 08:09:39;;;;;;;17.02;6.90;;;;;;;;;;5055490;28;20056;-73
2022/04/04 08:12:05;;;;;;;22.02;6.63;;;;;;;;;;5063049;28;20045;-73
2022/04/04 08:14:31;;;;;;;21.45;5.57;;;;;;;;;;5062362;28;20056;-74
2022/04/04 08:16:57;;;;;;;19.67;6.68;;;;;;;;;;5061387;28;20511;-74
2022/04/04 08:19:23;;;;;;;20.00;6.65;;;;;;;;;;5064293;28;20040;-73
2022/04/04 08:21:49;;;;;;;15.38;6.30;;;;;;;;;;5064666;28;20037;-72
2022/04/04 08:24:16;;;;;;;18.10;5.32;;;;;;;;;;5057706;28;20051;-72
2022/04/04 08:26:42;;;;;;;16.63;5.43;;;;;;;;;;5054097;28;20069;-72
2022/04/04 08:29:12;;;;;;;17.88;5.75;;;;;;;;;;5057235;28;20089;-72
2022/04/04 08:31:39;;;;;;;12.27;4.95;;;;;;;;;;5051924;28;20060;-72
2022/04/04 08:34:05;;;;;;;25.42;6.40;;;;;;;;;;5061465;28;20094;-72
2022/04/04 08:36:31;;;;;;;16.58;5.18;;;;;;;;;;5064232;28;20448;-72
2022/04/04 08:38:57;;;;;;;18.83;5.10;;;;;;;;;;5054540;28;20045;-72
2022/04/04 08:41:23;;;;;;;19.80;5.80;;;;;;;;;;5060516;28;20489;-72
2022/04/04 08:43:50;;;;;;;12.65;5.15;;;;;;;;;;5058825;28;20739;-72
2022/04/04 08:46:16;;;;;;;24.33;5.68;;;;;;;;;;5058107;28;20179;-72
2022/04/04 08:48:43;;;;;;;16.00;4.85;;;;;;;;;;5070052;28;20048;-72
2022/04/04 08:51:09;;;;;;;15.48;5.40;;;;;;;;;;5056606;28;20076;-73
2022/04/04 08:53:39;;;;;;;17.02;5.32;;;;;;;;;;5071285;28;20885;-73
2022/04/04 08:56:06;;;;;;;19.58;5.75;;;;;;;;;;5053803;28;20377;-73
2022/04/04 08:58:33;;;;;;;16.73;5.75;;;;;;;;;;5064785;28;20119;-72
2022/04/04 09:00:59;;;;;;;21.45;5.97;;;;;;;;;;5055967;28;20044;-72
2022/04/04 09:03:33;;;;;;;14.82;5.70;;;;;;;;;;5089909;28;20104;-73
2022/04/04 09:06:00;;;;;;;17.67;5.40;;;;;;;;;;5072827;28;20139;-72
2022/04/04 09:08:28;;;;;;;20.05;5.60;;;;;;;;;;5062385;28;20051;-72
2022/04/04 09:10:56;;;;;;;16.83;4.70;;;;;;;;;;5068991;28;20047;-72
2022/04/04 09:13:24;;;;;;;13.32;4.78;;;;;;;;;;5059983;28;20131;-72
2022/04/04 09:15:54;;;;;;;20.77;4.93;;;;;;;;;;5052111;28;20386;-72
2022/04/04 09:18:39;;;;;;;21.13;4.97;;;;;;;;;;5060390;28;20094;-72
2022/04/04 09:21:10;;;;;;;17.20;4.68;;;;;;;;;;5055109;28;20049;-72
2022/04/04 09:23:51;;;;;;;18.67;4.95;;;;;;;;;;5063473;28;20037;-72
2022/04/04 09:26:29;;;;;;;14.27;4.28;;;;;;;;;;5060563;28;20048;-72
2022/04/04 09:28:55;;;;;;;16.75;4.68;;;;;;;;;;5087410;28;20087;-72
2022/04/04 09:31:21;;;;;;;24.00;4.80;;;;;;;;;;5058699;28;20082;-72
2022/04/04 09:33:47;;;;;;;18.23;4.78;;;;;;;;;;5054126;28;20077;-72
2022/04/04 09:36:13;;;;;;;20.17;5.25;;;;;;;;;;5059073;28;20044;-72
2022/04/04 09:38:43;;;;;;;17.02;5.32;;;;;;;;;;5058483;28;20040;-72
2022/04/04 09:41:15;;;;;;;14.45;4.25;;;;;;;;;;5053700;28;20072;-72
2022/04/04 09:43:51;;;;;;;19.77;5.22;;;;;;;;;;5071686;28;20051;-73
2022/04/04 09:46:16;;;;;;;21.35;5.10;;;;;;;;;;5056910;28;20460;-72
2022/04/04 09:49:02;;;;;;;16.35;4.22;;;;;;;;;;5076330;28;20056;-72
2022/04/04 09:51:34;;;;;;;14.35;4.50;;;;;;;;;;5052733;28;20404;-72
2022/04/04 09:54:01;;;;;;;12.90;4.05;;;;;;;;;;5056880;28;20055;-72
2022/04/04 09:56:26;;;;;;;22.58;5.80;;;;;;;;;;5084453;28;20524;-72
2022/04/04 09:58:52;;;;;;;19.60;4.63;;;;;;;;;;5067520;28;20036;-73
2022/04/04 10:01:19;;;;;;;19.35;4.53;;;;;;;;;;5056375;28;20048;-72
2022/04/04 10:03:45;;;;;;;15.43;4.22;;;;;;;;;;5056834;28;20060;-72
2022/04/04 10:06:12;;;;;;;16.65;3.95;;;;;;;;;;5061916;28;20040;-73
2022/04/04 10:08:39;;;;;;;13.48;3.90;;;;;;;;;;5052369;28;20420;-72
2022/04/04 10:11:07;;;;;;;11.52;3.78;;;;;;;;;;5063294;28;20072;-72
2022/04/04 10:13:34;;;;;;;16.27;4.38;;;;;;;;;;5053713;28;20052;-72
2022/04/04 10:16:00;;;;;;;9.95;4.10;;;;;;;;;;5052388;28;20037;-72
2022/04/04 10:18:27;;;;;;;12.57;3.92;;;;;;;;;;5051977;28;20110;-72
2022/04/04 10:20:53;;;;;;;20.38;5.10;;;;;;;;;;5057677;28;20158;-72
2022/04/04 10:23:20;;;;;;;10.13;3.67;;;;;;;;;;5062039;28;20048;-72
2022/04/04 10:25:49;;;;;;;11.60;3.97;;;;;;;;;;5063313;28;20041;-72
2022/04/04 10:28:25;;;;;;;14.80;4.75;;;;;;;;;;5056297;28;20056;-72
2022/04/04 10:30:51;;;;;;;14.23;4.60;;;;;;;;;;5053643;28;20045;-72
2022/04/04 10:33:18;;;;;;;16.38;5.40;;;;;;;;;;5056441;28;20045;-73
2022/04/04 10:35:58;;;;;;;17.20;5.40;;;;;;;;;;5065452;28;20041;-72
2022/04/04 10:38:29;;;;;;;15.73;5.15;;;;;;;;;;5057096;28;20590;-72
2022/04/04 10:40:56;;;;;;;20.52;5.97;;;;;;;;;;5072982;28;20056;-72
2022/04/04 10:43:22;;;;;;;15.55;4.93;;;;;;;;;;5061407;28;20044;-72
2022/04/04 10:45:55;;;;;;;13.95;5.00;;;;;;;;;;5052821;28;20041;-72
2022/04/04 10:48:21;;;;;;;;;;;;;;;;;;5052687;28;20400;-73
2022/04/04 10:50:48;;;;;;;14.82;5.75;;;;;;;;;;5058895;28;19921;-72
2022/04/04 10:53:14;;;;;;;19.50;6.57;;;;;;;;;;5057846;28;20044;-72
2022/04/04 10:55:44;;;;;;;14.68;5.75;;;;;;;;;;5057019;28;20043;-73
2022/04/04 10:58:28;;;;;;;17.75;7.65;;;;;;;;;;5052189;28;20166;-72
2022/04/04 11:00:57;;;;;;;23.20;7.45;;;;;;;;;;5054687;28;20051;-72
2022/04/04 11:03:50;;;;;;;16.58;7.43;;;;;;;;;;5061961;28;20048;-72
2022/04/04 11:09:11;;;;;;;26.42;8.73;;;;;;;;;;5061132;28;20049;-73
2022/04/04 11:11:50;;;;;;;17.25;7.50;;;;;;;;;;5064307;28;20124;-74
2022/04/04 11:14:17;;;;;;;26.27;9.30;;;;;;;;;;5054686;28;20679;-72
2022/04/04 11:17:02;;;;;;;22.20;8.50;;;;;;;;;;5059488;28;20083;-73
2022/04/04 11:19:28;;;;;;;14.23;7.57;;;;;;;;;;5051378;28;20570;-73
2022/04/04 11:21:54;;;;;;;23.27;9.05;;;;;;;;;;5061383;28;20049;-73
2022/04/04 11:24:21;;;;;;;20.83;9.43;;;;;;;;;;5079009;28;20051;-73
2022/04/04 11:26:48;;;;;;;20.38;8.70;;;;;;;;;;5068489;28;20048;-73
2022/04/04 11:29:21;;;;;;;22.67;9.05;;;;;;;;;;5060056;28;20099;-73
2022/04/04 11:31:48;;;;;;;23.40;9.32;;;;;;;;;;5055468;28;20478;-72
2022/04/04 11:34:14;;;;;;;20.70;9.75;;;;;;;;;;5058852;28;20048;-72
2022/04/04 11:36:41;;;;;;;19.58;9.00;;;;;;;;;;5079846;28;20032;-72
2022/04/04 11:39:08;;;;;;;22.60;9.27;;;;;;;;;;5054103;28;20051;-71
2022/04/04 11:41:39;;;;;;;18.55;8.32;;;;;;;;;;5058085;28;20115;-72
2022/04/04 11:44:05;;;;;;;23.25;9.55;;;;;;;;;;5058519;28;20044;-72
2022/04/04 11:46:32;;;;;;;22.58;9.18;;;;;;;;;;5050317;28;20663;-72
2022/04/04 11:48:59;;;;;;;25.27;9.25;;;;;;;;;;5061373;28;20032;-72
2022/04/04 11:51:26;;;;;;;25.73;10.13;;;;;;;;;;5058545;28;20512;-72
2022/04/04 11:54:00;;;;;;;21.75;10.20;;;;;;;;;;5069786;28;20046;-72
2022/04/04 11:56:27;;;;;;;24.80;9.18;;;;;;;;;;5050246;28;20812;-72
2022/04/04 11:58:55;;;;;;;24.20;10.60;;;;;;;;;;5060931;28;20053;-72
2022/04/04 12:01:25;;;;;;;28.05;10.32;;;;;;;;;;5051886;28;20198;-73
2022/04/04 12:03:51;;;;;;;29.98;9.80;;;;;;;;;;5059205;28;20044;-72
2022/04/04 12:06:18;;;;;;;24.95;9.73;;;;;;;;;;5062642;28;20044;-71
2022/04/04 12:08:44;;;;;;;25.23;10.50;;;;;;;;;;5056218;28;20037;-72
2022/04/04 12:11:10;;;;;;;24.08;9.52;;;;;;;;;;5086599;28;20037;-72
2022/04/04 12:13:49;;;;;;;27.65;10.50;;;;;;;;;;5060620;28;20045;-73
2022/04/04 12:16:16;;;;;;;25.20;10.63;;;;;;;;;;5050859;28;20112;-72
2022/04/04 12:18:42;;;;;;;25.60;9.55;;;;;;;;;;5052956;28;20037;-73
2022/04/04 12:21:08;;;;;;;26.88;10.05;;;;;;;;;;5053278;28;20045;-73
2022/04/04 12:26:23;;;;;;;28.88;10.48;;;;;;;;;;5050827;28;20052;-72
2022/04/04 12:28:49;;;;;;;28.98;9.77;;;;;;;;;;5052587;28;20063;-72
2022/04/04 12:31:18;;;;;;;27.23;10.18;;;;;;;;;;5050078;28;20416;-72
2022/04/04 12:33:44;;;;;;;28.27;9.27;;;;;;;;;;5052842;28;20045;-72
2022/04/04 12:36:10;;;;;;;34.45;10.98;;;;;;;;;;5051677;28;20127;-72
2022/04/04 12:38:41;;;;;;;27.15;9.52;;;;;;;;;;5056035;28;20037;-73
2022/04/04 12:41:12;;;;;;;35.03;10.13;;;;;;;;;;5062134;28;20067;-72
2022/04/04 12:43:45;;;;;;;20.70;9.00;;;;;;;;;;5059427;28;20036;-72
2022/04/04 12:46:11;;;;;;;;;;;;;;;;;;5058848;28;20056;-71
2022/04/04 12:48:38;;;;;;;28.15;9.93;;;;;;;;;;5072621;28;19924;-72
2022/04/04 12:51:06;;;;;;;29.85;9.70;;;;;;;;;;5056576;28;20045;-72
2022/04/04 12:53:52;;;;;;;28.77;10.50;;;;;;;;;;5070077;28;20040;-72
2022/04/04 12:56:18;;;;;;;24.27;8.80;;;;;;;;;;5069317;28;20555;-73
2022/04/04 12:59:01;;;;;;;26.98;9.90;;;;;;;;;;5061140;28;20044;-72
2022/04/04 13:01:27;;;;;;;33.63;10.07;;;;;;;;;;5081071;28;20503;-73
2022/04/04 13:03:53;;;;;;;21.77;9.40;;;;;;;;;;5063098;28;20057;-74
2022/04/04 13:06:20;;;;;;;28.27;10.77;;;;;;;;;;5076869;28;20044;-73
2022/04/04 13:08:56;;;;;;;27.25;9.57;;;;;;;;;;5093538;28;20041;-73
2022/04/04 13:11:27;;;;;;;24.83;9.40;;;;;;;;;;5091794;28;20407;-74
2022/04/04 13:14:08;;;;;;;28.77;9.80;;;;;;;;;;5088533;28;20109;-73
2022/04/04 13:16:41;;;;;;;23.75;9.40;;;;;;;;;;5087230;28;20510;-74
2022/04/04 13:19:09;;;;;;;30.77;10.93;;;;;;;;;;5064422;28;20040;-74
2022/04/04 13:21:35;;;;;;;20.17;7.40;;;;;;;;;;5088847;28;20055;-74
2022/04/04 13:24:02;;;;;;;34.58;8.32;;;;;;;;;;5090302;28;20400;-74
2022/04/04 13:26:28;;;;;;;24.52;9.50;;;;;;;;;;5089877;28;20051;-73
2022/04/04 13:28:54;;;;;;;20.52;7.88;;;;;;;;;;5065028;28;20139;-73
2022/04/04 13:31:20;;;;;;;22.08;8.10;;;;;;;;;;5056592;28;20052;-74
2022/04/04 13:33:50;;;;;;;23.08;8.45;;;;;;;;;;5054691;28;20048;-73
2022/04/04 13:36:17;;;;;;;25.63;9.75;;;;;;;;;;5063953;28;20071;-73
2022/04/04 13:38:43;;;;;;;26.95;9.07;;;;;;;;;;5059364;28;20431;-73
2022/04/04 13:41:09;;;;;;;22.45;8.25;;;;;;;;;;5064720;28;20069;-73
2022/04/04 13:43:35;;;;;;;34.17;10.68;;;;;;;;;;5080393;28;20127;-74
2022/04/04 13:46:03;;;;;;;26.25;8.88;;;;;;;;;;5087012;28;20045;-74
2022/04/04 13:48:29;;;;;;;30.33;9.98;;;;;;;;;;5064959;28;20072;-74
2022/04/04 13:50:55;;;;;;;25.30;11.18;;;;;;;;;;5062960;28;20489;-73
2022/04/04 13:53:21;;;;;;;26.52;9.73;;;;;;;;;;5063174;28;20542;-74
2022/04/04 13:55:47;;;;;;;28.50;9.60;;;;;;;;;;5060396;28;20548;-73
2022/04/04 13:58:13;;;;;;;23.30;8.63;;;;;;;;;;5061529;28;20131;-73
2022/04/04 14:00:39;;;;;;;27.35;9.07;;;;;;;;;;5060160;28;20045;-75
2022/04/04 14:03:05;;;;;;;27.25;10.02;;;;;;;;;;5066671;28;20093;-74
2022/04/04 14:05:31;;;;;;;23.60;7.53;;;;;;;;;;5051334;28;20044;-74
2022/04/04 14:07:57;;;;;;;23.70;7.35;;;;;;;;;;5068338;28;20081;-74
2022/04/04 14:10:23;;;;;;;25.13;7.82;;;;;;;;;;5067017;28;20140;-74
2022/04/04 14:12:49;;;;;;;30.40;7.75;;;;;;;;;;5055614;28;20041;-74
2022/04/04 14:15:17;;;;;;;25.02;7.93;;;;;;;;;;5063107;28;20048;-74
2022/04/04 14:17:43;;;;;;;24.95;7.80;;;;;;;;;;5062157;28;20094;-74
2022/04/04 14:20:10;;;;;;;23.58;7.50;;;;;;;;;;5061841;28;20051;-74
2022/04/04 14:22:36;;;;;;;19.77;7.43;;;;;;;;;;5057346;28;20369;-73
2022/04/04 14:25:03;;;;;;;23.58;7.15;;;;;;;;;;5062456;28;20049;-74
2022/04/04 14:27:30;;;;;;;21.35;7.10;;;;;;;;;;5052609;28;20044;-74
2022/04/04 14:29:57;;;;;;;29.90;7.30;;;;;;;;;;5054988;28;20081;-73
2022/04/04 14:32:23;;;;;;;19.38;6.15;;;;;;;;;;5056272;28;20119;-74
2022/04/04 14:34:50;;;;;;;24.75;7.15;;;;;;;;;;5069096;28;20041;-73
2022/04/04 14:37:16;;;;;;;24.20;6.85;;;;;;;;;;5053595;28;20040;-73
2022/04/04 14:39:43;;;;;;;23.90;6.35;;;;;;;;;;5057580;28;20396;-74
2022/04/04 14:42:13;;;;;;;27.73;5.80;;;;;;;;;;5059778;28;20044;-74